Time;durP1;ratioP1;P1;durP2;ratioP2;P2;SDS_P1;SDS_P2;PMS_P1;PMS_P2;Temp;Humidity;BMP_temperature;BMP_pressure;BME280_temperature;BME280_humidity;BME280_pressure;Samples;Min_cycle;Max_cycle;Signal;HPM_P1;HPM_P2
2021/09/24 00:00:14;;;;;;;4.90;3.62;;;13.00;80.70;;;;;;1897712;75;21034;-51
2021/09/24 00:02:44;;;;;;;4.25;3.60;;;12.90;80.80;;;;;;1897776;75;21104;-47
2021/09/24 00:05:13;;;;;;;5.95;4.08;;;12.90;80.90;;;;;;1897819;75;21088;-48
2021/09/24 00:07:43;;;;;;;5.35;4.12;;;12.90;81.30;;;;;;1897885;75;21038;-46
2021/09/24 00:10:13;;;;;;;6.87;5.00;;;13.00;81.60;;;;;;1897711;75;21034;-46
2021/09/24 00:12:42;;;;;;;7.80;4.15;;;13.00;81.50;;;;;;1897837;75;21084;-47
2021/09/24 00:15:14;;;;;;;6.40;4.90;;;13.00;81.30;;;;;;1897670;75;21010;-49
2021/09/24 00:17:45;;;;;;;7.03;5.05;;;13.00;81.60;;;;;;1897902;75;21022;-48
2021/09/24 00:20:15;;;;;;;10.90;4.40;;;13.00;81.90;;;;;;1897657;75;21152;-47
2021/09/24 00:22:44;;;;;;;4.83;4.03;;;13.00;81.90;;;;;;1897825;75;21112;-48
2021/09/24 00:25:14;;;;;;;8.08;4.42;;;13.00;82.00;;;;;;1897686;75;21088;-48
2021/09/24 00:27:43;;;;;;;8.30;5.15;;;13.00;82.10;;;;;;1897724;75;21015;-49
2021/09/24 00:30:13;;;;;;;11.30;4.65;;;13.00;82.40;;;;;;1897742;75;21042;-47
2021/09/24 00:32:42;;;;;;;8.70;5.22;;;13.00;82.50;;;;;;1894645;75;21033;-48
2021/09/24 00:35:12;;;;;;;6.58;5.10;;;13.10;82.20;;;;;;1875615;76;21031;-46
2021/09/24 00:37:41;;;;;;;6.47;5.08;;;13.10;82.20;;;;;;1875629;76;21039;-48
2021/09/24 00:40:11;;;;;;;5.75;4.70;;;13.10;82.40;;;;;;1875620;76;21031;-47
2021/09/24 00:42:41;;;;;;;7.33;4.70;;;13.10;81.70;;;;;;1875534;76;21035;-46
2021/09/24 00:45:11;;;;;;;6.62;4.62;;;13.00;81.50;;;;;;1875533;76;21030;-47
2021/09/24 00:47:40;;;;;;;7.72;5.28;;;12.90;80.60;;;;;;1875556;76;21031;-48
2021/09/24 00:50:10;;;;;;;6.22;4.95;;;12.80;81.50;;;;;;1875514;76;21156;-48
2021/09/24 00:52:39;;;;;;;6.50;4.53;;;12.70;82.10;;;;;;1875533;76;21023;-48
2021/09/24 00:55:10;;;;;;;4.97;3.98;;;12.60;81.70;;;;;;1875491;76;21531;-46
2021/09/24 00:57:39;;;;;;;4.40;4.00;;;12.50;81.50;;;;;;1875544;76;21089;-46
2021/09/24 01:00:09;;;;;;;6.20;4.33;;;12.40;81.60;;;;;;1875574;76;21015;-47
2021/09/24 01:02:39;;;;;;;7.70;4.40;;;12.30;81.80;;;;;;1875608;76;21059;-49
2021/09/24 01:05:09;;;;;;;8.63;4.92;;;12.20;82.40;;;;;;1875624;76;21093;-46
2021/09/24 01:07:40;;;;;;;8.03;4.50;;;12.10;82.90;;;;;;1875719;76;21418;-47
2021/09/24 01:10:11;;;;;;;4.87;4.25;;;12.10;83.30;;;;;;1875649;76;21038;-47
2021/09/24 01:12:41;;;;;;;6.83;4.40;;;12.10;83.50;;;;;;1875613;76;21042;-46
2021/09/24 01:15:13;;;;;;;6.25;4.80;;;12.20;83.60;;;;;;1875640;76;21031;-46
2021/09/24 01:17:43;;;;;;;6.20;4.95;;;12.30;83.80;;;;;;1875506;76;21080;-46
2021/09/24 01:20:14;;;;;;;7.53;4.45;;;12.30;83.90;;;;;;1875587;76;21085;-46
2021/09/24 01:22:44;;;;;;;7.33;4.00;;;12.30;83.90;;;;;;1875557;76;21156;-48
2021/09/24 01:25:16;;;;;;;6.28;4.20;;;12.40;83.90;;;;;;1875510;76;21117;-47
2021/09/24 01:27:45;;;;;;;9.08;4.20;;;12.40;83.80;;;;;;1875606;76;21094;-46
2021/09/24 01:30:15;;;;;;;6.40;4.53;;;12.50;83.60;;;;;;1875601;76;21131;-47
2021/09/24 01:32:46;;;;;;;6.50;4.45;;;12.50;83.60;;;;;;1875466;76;21066;-47
2021/09/24 01:35:16;;;;;;;5.95;4.53;;;12.50;83.50;;;;;;1896779;75;21108;-47
2021/09/24 01:37:47;;;;;;;6.67;4.67;;;12.40;83.80;;;;;;1897699;75;21046;-47
2021/09/24 01:40:18;;;;;;;6.15;4.83;;;12.40;83.20;;;;;;1897802;75;21050;-47
2021/09/24 01:42:52;;;;;;;5.85;4.22;;;12.30;82.60;;;;;;1897771;75;21028;-47
2021/09/24 01:45:22;;;;;;;8.77;5.27;;;12.20;83.00;;;;;;1898015;75;21092;-46
2021/09/24 01:47:51;;;;;;;6.00;4.58;;;12.10;83.40;;;;;;1897661;75;21073;-48
2021/09/24 01:50:21;;;;;;;6.33;4.90;;;12.10;83.90;;;;;;1897714;75;21046;-46
2021/09/24 01:52:50;;;;;;;6.12;4.60;;;12.10;84.20;;;;;;1897673;75;21142;-47
2021/09/24 01:55:20;;;;;;;7.50;4.67;;;12.20;84.10;;;;;;1897651;75;21108;-47
2021/09/24 01:57:49;;;;;;;6.87;4.58;;;12.20;83.90;;;;;;1897671;75;21038;-46
2021/09/24 02:00:19;;;;;;;7.08;4.60;;;12.20;84.00;;;;;;1897642;75;21038;-46
2021/09/24 02:02:48;;;;;;;8.38;4.87;;;12.20;84.10;;;;;;1897819;75;21115;-47
2021/09/24 02:05:18;;;;;;;7.28;4.60;;;12.30;84.20;;;;;;1897813;75;21014;-47
2021/09/24 02:07:47;;;;;;;8.00;4.70;;;12.30;83.80;;;;;;1897798;75;21065;-47
2021/09/24 02:10:16;;;;;;;6.78;4.83;;;12.20;83.70;;;;;;1897751;75;21046;-46
2021/09/24 02:12:46;;;;;;;5.80;4.75;;;12.20;83.40;;;;;;1897668;75;21089;-47
2021/09/24 02:15:15;;;;;;;7.03;4.80;;;12.10;83.60;;;;;;1897741;75;21107;-47
2021/09/24 02:17:45;;;;;;;5.95;4.40;;;12.00;83.60;;;;;;1897688;75;21030;-47
2021/09/24 02:20:14;;;;;;;5.60;4.28;;;11.90;83.80;;;;;;1897772;75;21014;-47
2021/09/24 02:22:44;;;;;;;5.33;4.53;;;11.90;84.30;;;;;;1897785;75;21054;-47
2021/09/24 02:25:13;;;;;;;7.65;4.58;;;11.90;84.60;;;;;;1897682;75;21026;-47
2021/09/24 02:27:43;;;;;;;5.90;4.87;;;12.00;84.80;;;;;;1897641;75;21038;-46
2021/09/24 02:30:13;;;;;;;9.03;4.30;;;12.00;85.00;;;;;;1897785;75;21097;-46
2021/09/24 02:32:42;;;;;;;6.42;4.80;;;12.00;85.00;;;;;;1897763;75;21125;-47
2021/09/24 02:35:12;;;;;;;6.00;4.00;;;12.10;85.10;;;;;;1897709;75;21050;-49
2021/09/24 02:37:41;;;;;;;5.42;4.70;;;12.20;84.50;;;;;;1897759;75;21453;-48
2021/09/24 02:40:11;;;;;;;7.40;4.60;;;12.10;84.60;;;;;;1897679;75;21058;-48
2021/09/24 02:42:41;;;;;;;10.48;4.67;;;12.10;85.00;;;;;;1897772;75;21014;-47
2021/09/24 02:45:11;;;;;;;5.62;4.45;;;12.10;85.30;;;;;;1897770;75;21113;-46
2021/09/24 02:47:40;;;;;;;6.67;5.28;;;12.10;85.30;;;;;;1897726;75;21100;-47
2021/09/24 02:50:11;;;;;;;8.70;4.60;;;12.20;85.30;;;;;;1897943;75;21046;-49
2021/09/24 02:52:40;;;;;;;7.17;3.65;;;12.20;85.20;;;;;;1897752;75;21018;-46
2021/09/24 02:55:10;;;;;;;9.93;4.70;;;12.10;84.50;;;;;;1897675;75;21038;-47
2021/09/24 02:57:40;;;;;;;7.92;5.00;;;12.00;83.90;;;;;;1897800;75;21034;-47
2021/09/24 03:00:09;;;;;;;5.35;4.40;;;12.00;84.90;;;;;;1897578;75;21014;-48
2021/09/24 03:02:39;;;;;;;8.88;4.55;;;12.00;85.40;;;;;;1897795;75;21536;-47
2021/09/24 03:05:09;;;;;;;7.67;5.00;;;11.90;85.60;;;;;;1897757;75;21219;-48
2021/09/24 03:07:38;;;;;;;5.05;4.53;;;12.00;85.80;;;;;;1897727;75;21072;-47
2021/09/24 03:10:08;;;;;;;5.72;4.58;;;12.00;85.70;;;;;;1897611;75;21128;-46
2021/09/24 03:12:38;;;;;;;7.42;4.97;;;12.00;85.40;;;;;;1897636;75;21109;-47
2021/09/24 03:15:09;;;;;;;5.72;4.50;;;12.00;85.60;;;;;;1897635;75;21058;-49
2021/09/24 03:17:39;;;;;;;9.98;4.45;;;12.00;85.50;;;;;;1897785;75;21128;-46
2021/09/24 03:20:10;;;;;;;14.75;5.08;;;12.00;84.40;;;;;;1897827;75;21096;-47
2021/09/24 03:22:39;;;;;;;11.53;5.47;;;11.90;84.50;;;;;;1897935;75;21042;-47
2021/09/24 03:25:09;;;;;;;7.70;5.10;;;11.80;85.10;;;;;;1897856;75;21030;-47
2021/09/24 03:27:39;;;;;;;8.95;5.60;;;11.80;85.60;;;;;;1897789;75;21246;-48
2021/09/24 03:30:09;;;;;;;7.42;4.90;;;11.80;85.80;;;;;;1897743;75;21152;-46
2021/09/24 03:32:38;;;;;;;7.47;4.50;;;11.80;86.10;;;;;;1897708;75;21096;-48
2021/09/24 03:35:09;;;;;;;8.23;5.33;;;11.90;86.10;;;;;;1897719;75;21058;-47
2021/09/24 03:37:38;;;;;;;7.90;4.95;;;11.90;86.10;;;;;;1897729;75;21034;-47
2021/09/24 03:40:08;;;;;;;7.00;4.42;;;12.00;86.10;;;;;;1897710;75;21097;-48
2021/09/24 03:42:38;;;;;;;7.47;4.55;;;12.00;86.00;;;;;;1897643;75;21034;-48
2021/09/24 03:45:09;;;;;;;6.40;4.78;;;12.00;85.40;;;;;;1897637;75;21042;-46
2021/09/24 03:47:39;;;;;;;21.50;11.63;;;12.00;85.00;;;;;;1897643;75;21034;-47
2021/09/24 03:50:09;;;;;;;7.85;5.67;;;11.80;84.50;;;;;;1897668;75;21030;-48
2021/09/24 03:52:38;;;;;;;10.25;5.15;;;11.70;84.30;;;;;;1897664;75;21017;-48
2021/09/24 03:55:08;;;;;;;8.33;4.40;;;11.60;84.40;;;;;;1897801;75;21081;-49
2021/09/24 03:57:37;;;;;;;11.90;5.65;;;11.50;84.50;;;;;;1897694;75;21095;-49
2021/09/24 04:00:08;;;;;;;11.53;5.20;;;11.40;85.10;;;;;;1897661;75;21034;-47
2021/09/24 04:02:39;;;;;;;8.03;4.97;;;11.40;85.50;;;;;;1897204;75;21103;-47
2021/09/24 04:05:08;;;;;;;8.23;5.05;;;11.40;85.50;;;;;;1897691;75;21108;-47
2021/09/24 04:07:38;;;;;;;8.40;4.72;;;11.40;85.50;;;;;;1897666;75;21117;-47
2021/09/24 04:10:08;;;;;;;6.30;5.00;;;11.40;85.50;;;;;;1897678;75;21050;-48
2021/09/24 04:12:37;;;;;;;9.05;4.95;;;11.40;85.00;;;;;;1897747;75;21092;-48
2021/09/24 04:15:07;;;;;;;9.93;5.47;;;11.40;85.10;;;;;;1897823;75;21046;-46
2021/09/24 04:17:36;;;;;;;8.40;5.80;;;11.40;85.60;;;;;;1897696;75;21053;-47
2021/09/24 04:20:06;;;;;;;8.53;5.12;;;11.50;85.80;;;;;;1897650;75;21159;-47
2021/09/24 04:22:35;;;;;;;7.35;5.25;;;11.70;86.60;;;;;;1897720;75;21089;-48
2021/09/24 04:25:06;;;;;;;9.13;5.25;;;11.80;86.00;;;;;;1897801;75;21026;-48
2021/09/24 04:27:35;;;;;;;8.05;5.28;;;11.90;86.00;;;;;;1897625;75;21041;-47
2021/09/24 04:30:05;;;;;;;8.50;5.35;;;12.10;86.10;;;;;;1897782;75;21033;-49
2021/09/24 04:32:35;;;;;;;21.80;6.58;;;12.20;85.90;;;;;;1897650;75;21143;-49
2021/09/24 04:35:05;;;;;;;11.75;5.58;;;12.30;85.90;;;;;;1894184;75;21098;-47
2021/09/24 04:37:34;;;;;;;11.95;6.30;;;12.40;85.80;;;;;;1875521;76;21033;-46
2021/09/24 04:40:04;;;;;;;13.20;7.70;;;12.60;85.90;;;;;;1875414;76;21039;-50
2021/09/24 04:42:34;;;;;;;8.03;6.47;;;12.70;86.00;;;;;;1875485;76;21034;-45
2021/09/24 04:45:05;;;;;;;13.38;7.53;;;12.80;85.90;;;;;;1875562;76;21039;-46
2021/09/24 04:47:34;;;;;;;8.23;5.85;;;12.90;85.80;;;;;;1875507;76;21039;-46
2021/09/24 04:50:05;;;;;;;6.83;5.53;;;13.00;85.10;;;;;;1875696;76;21624;-46
2021/09/24 04:52:37;;;;;;;8.78;6.17;;;13.00;84.80;;;;;;1875610;76;21035;-47
2021/09/24 04:55:07;;;;;;;11.60;6.50;;;13.00;85.10;;;;;;1875628;76;21113;-48
2021/09/24 04:57:37;;;;;;;13.55;6.25;;;13.00;85.10;;;;;;1875570;76;21552;-47
2021/09/24 05:00:09;;;;;;;11.68;6.60;;;13.10;85.50;;;;;;1875605;76;21081;-48
2021/09/24 05:02:38;;;;;;;16.90;6.60;;;13.20;85.50;;;;;;1875465;76;21098;-46
2021/09/24 05:05:09;;;;;;;11.95;6.42;;;13.30;85.10;;;;;;1875520;76;21007;-47
2021/09/24 05:07:39;;;;;;;11.50;7.08;;;13.30;85.30;;;;;;1875472;76;21140;-46
2021/09/24 05:10:09;;;;;;;18.50;8.70;;;13.40;85.20;;;;;;1875476;76;21103;-49
2021/09/24 05:12:38;;;;;;;14.47;7.95;;;13.40;85.10;;;;;;1875430;76;21074;-46
2021/09/24 05:15:08;;;;;;;18.30;8.68;;;13.40;84.80;;;;;;1875544;76;21112;-47
2021/09/24 05:17:38;;;;;;;16.37;8.00;;;13.40;85.00;;;;;;1875431;76;21069;-47
2021/09/24 05:20:08;;;;;;;9.53;7.22;;;13.50;85.00;;;;;;1875495;76;21105;-47
2021/09/24 05:22:37;;;;;;;14.00;6.83;;;13.50;85.20;;;;;;1875395;76;21138;-47
2021/09/24 05:25:08;;;;;;;11.08;6.67;;;13.60;85.20;;;;;;1875423;76;21042;-47
2021/09/24 05:27:37;;;;;;;8.83;6.10;;;13.70;85.10;;;;;;1875428;76;21093;-46
2021/09/24 05:30:07;;;;;;;8.65;6.30;;;13.80;84.90;;;;;;1875548;76;21051;-47
2021/09/24 05:32:37;;;;;;;15.25;6.35;;;13.90;84.40;;;;;;1875510;76;21055;-47
2021/09/24 05:35:08;;;;;;;14.63;6.92;;;14.00;84.00;;;;;;1875425;76;21035;-46
2021/09/24 05:37:38;;;;;;;10.95;6.67;;;14.10;83.30;;;;;;1875503;76;21076;-46
2021/09/24 05:40:08;;;;;;;9.73;6.40;;;14.10;83.40;;;;;;1875406;76;21051;-47
2021/09/24 05:42:37;;;;;;;11.00;6.90;;;14.20;83.40;;;;;;1875385;76;21101;-48
2021/09/24 05:45:11;;;;;;;8.30;5.60;;;14.30;82.80;;;;;;1875367;76;21101;-46
2021/09/24 05:47:39;;;;;;;15.10;5.87;;;14.30;82.60;;;;;;1875330;76;21605;-45
2021/09/24 05:50:13;;;;;;;8.28;5.40;;;14.40;82.20;;;;;;1875413;76;21039;-46
2021/09/24 05:52:48;;;;;;;12.65;6.47;;;14.40;81.50;;;;;;1875737;76;21043;-47
2021/09/24 05:55:19;;;;;;;7.83;4.85;;;14.40;81.50;;;;;;1874562;76;21062;-46
2021/09/24 05:57:50;;;;;;;6.22;4.78;;;14.50;81.60;;;;;;1875525;76;21039;-47
2021/09/24 06:00:20;;;;;;;4.87;4.00;;;14.50;81.30;;;;;;1875442;76;21039;-46
2021/09/24 06:02:50;;;;;;;6.87;4.83;;;14.60;80.30;;;;;;1875518;76;21027;-46
2021/09/24 06:05:20;;;;;;;5.75;4.28;;;14.60;79.50;;;;;;1875415;76;21108;-46
2021/09/24 06:07:49;;;;;;;7.40;5.33;;;14.60;79.40;;;;;;1875530;76;21022;-50
2021/09/24 06:10:19;;;;;;;5.83;4.22;;;14.70;80.20;;;;;;1875424;76;21027;-47
2021/09/24 06:12:49;;;;;;;12.63;5.12;;;14.80;79.60;;;;;;1875563;76;21033;-50
2021/09/24 06:15:20;;;;;;;12.25;5.47;;;14.90;80.10;;;;;;1875497;76;21038;-50
2021/09/24 06:17:50;;;;;;;50.92;8.45;;;15.10;79.60;;;;;;1875427;76;21106;-50
2021/09/24 06:20:21;;;;;;;20.15;4.92;;;15.10;78.10;;;;;;1875447;76;21039;-51
2021/09/24 06:22:51;;;;;;;67.12;10.25;;;15.20;75.50;;;;;;1875452;76;21027;-46
2021/09/24 06:25:21;;;;;;;18.25;5.95;;;15.30;77.70;;;;;;1875492;76;21101;-47
2021/09/24 06:27:51;;;;;;;88.90;10.55;;;15.30;77.20;;;;;;1875507;76;21489;-50
2021/09/24 06:30:22;;;;;;;97.45;11.63;;;15.40;77.30;;;;;;1875605;76;21015;-51
2021/09/24 06:32:51;;;;;;;53.13;8.58;;;15.40;78.00;;;;;;1875554;76;21051;-48
2021/09/24 06:35:21;;;;;;;10.40;4.65;;;15.50;76.70;;;;;;1875596;76;21015;-50
2021/09/24 06:37:51;;;;;;;23.98;5.33;;;15.60;76.20;;;;;;1874862;76;21054;-46
2021/09/24 06:40:20;;;;;;;23.80;6.25;;;15.60;76.90;;;;;;1875432;76;21027;-49
2021/09/24 06:42:49;;;;;;;11.08;5.15;;;15.70;76.50;;;;;;1875518;76;21070;-46
2021/09/24 06:45:19;;;;;;;19.05;6.60;;;15.80;75.00;;;;;;1875406;76;21164;-50
2021/09/24 06:47:49;;;;;;;8.65;4.78;;;15.80;75.00;;;;;;1875478;76;21100;-50
2021/09/24 06:50:18;;;;;;;6.00;5.03;;;15.70;74.60;;;;;;1875492;76;21077;-45
2021/09/24 06:52:47;;;;;;;8.03;5.37;;;15.70;73.10;;;;;;1875385;76;21063;-50
2021/09/24 06:55:21;;;;;;;8.98;4.22;;;15.70;73.30;;;;;;1875597;76;21129;-46
2021/09/24 06:57:48;;;;;;;6.70;5.33;;;15.70;72.80;;;;;;1875290;76;21032;-51
2021/09/24 07:00:18;;;;;;;13.50;5.85;;;15.70;72.00;;;;;;1875359;76;21145;-50
2021/09/24 07:02:47;;;;;;;12.90;5.40;;;15.70;73.30;;;;;;1875542;76;21097;-47
2021/09/24 07:05:17;;;;;;;7.30;5.35;;;15.80;72.20;;;;;;1875570;76;21078;-44
2021/09/24 07:07:46;;;;;;;6.83;5.58;;;15.80;71.90;;;;;;1884784;75;21086;-47
2021/09/24 07:10:17;;;;;;;11.90;5.12;;;15.80;71.60;;;;;;1913836;75;21138;-45
2021/09/24 07:12:48;;;;;;;16.60;5.37;;;15.90;72.00;;;;;;1913622;75;21105;-50
2021/09/24 07:15:17;;;;;;;13.13;6.25;;;16.00;72.00;;;;;;1913561;75;21026;-51
2021/09/24 07:17:46;;;;;;;8.40;5.60;;;16.00;72.30;;;;;;1913638;75;21058;-48
2021/09/24 07:20:16;;;;;;;7.87;5.22;;;16.00;71.70;;;;;;1913584;75;21425;-49
2021/09/24 07:22:45;;;;;;;10.65;5.70;;;16.00;70.80;;;;;;1913444;75;21054;-50
2021/09/24 07:25:15;;;;;;;10.53;5.67;;;16.10;70.40;;;;;;1913723;75;21026;-48
2021/09/24 07:27:44;;;;;;;29.90;11.30;;;16.10;71.10;;;;;;1913764;75;21092;-50
2021/09/24 07:30:14;;;;;;;12.82;8.18;;;16.20;71.10;;;;;;1913503;75;21117;-48
2021/09/24 07:32:43;;;;;;;27.62;15.45;;;16.20;70.90;;;;;;1913657;75;21094;-47
2021/09/24 07:35:13;;;;;;;9.88;5.55;;;16.30;71.00;;;;;;1913651;75;21072;-48
2021/09/24 07:37:42;;;;;;;11.05;5.60;;;16.30;70.50;;;;;;1913436;74;21167;-47
2021/09/24 07:40:12;;;;;;;9.13;6.47;;;16.30;70.00;;;;;;1913453;75;21168;-49
2021/09/24 07:42:42;;;;;;;7.40;5.25;;;16.40;70.30;;;;;;1913460;75;21139;-48
2021/09/24 07:45:12;;;;;;;12.60;7.22;;;16.50;70.20;;;;;;1913538;75;21074;-48
2021/09/24 07:47:41;;;;;;;8.95;5.97;;;16.50;69.10;;;;;;1913591;75;21074;-47
2021/09/24 07:50:11;;;;;;;6.70;5.12;;;16.50;69.40;;;;;;1913512;75;21042;-48
2021/09/24 07:52:41;;;;;;;7.83;5.17;;;16.50;68.90;;;;;;1913611;75;21148;-50
2021/09/24 07:55:11;;;;;;;7.90;4.40;;;16.50;67.70;;;;;;1913548;75;20999;-48
2021/09/24 07:57:41;;;;;;;5.00;4.10;;;16.60;67.30;;;;;;1913548;75;21062;-47
2021/09/24 08:00:11;;;;;;;11.60;5.17;;;16.60;67.70;;;;;;1913464;75;21076;-48
2021/09/24 08:02:40;;;;;;;9.88;5.15;;;16.60;67.80;;;;;;1913633;75;21023;-50
2021/09/24 08:05:10;;;;;;;8.78;4.92;;;16.70;67.00;;;;;;1913961;75;21191;-50
2021/09/24 08:07:39;;;;;;;8.70;5.47;;;16.70;67.50;;;;;;1913715;75;21073;-48
2021/09/24 08:10:09;;;;;;;8.40;4.20;;;16.80;67.30;;;;;;1913751;75;21011;-46
2021/09/24 08:12:39;;;;;;;7.28;5.00;;;16.90;67.40;;;;;;1913832;75;21043;-48
2021/09/24 08:15:09;;;;;;;5.47;3.80;;;16.90;67.40;;;;;;1913721;75;21030;-50
2021/09/24 08:17:39;;;;;;;4.75;3.60;;;17.00;67.30;;;;;;1913483;75;21148;-48
2021/09/24 08:20:09;;;;;;;4.58;3.87;;;17.00;66.80;;;;;;1913736;75;21003;-50
2021/09/24 08:22:38;;;;;;;6.35;4.80;;;17.10;65.10;;;;;;1913537;75;21096;-48
2021/09/24 08:27:20;;;;;;;4.22;3.30;;;17.10;62.70;;;;;;1958462;73;27514;-50
2021/09/24 08:29:49;;;;;;;3.85;3.55;;;17.20;64.70;;;;;;1917664;75;21007;-48
2021/09/24 08:32:18;;;;;;;5.65;3.70;;;17.30;64.00;;;;;;1917466;75;21082;-46
2021/09/24 08:34:48;;;;;;;5.58;3.52;;;17.30;63.70;;;;;;1917972;75;20998;-50
2021/09/24 08:37:17;;;;;;;8.25;4.08;;;17.30;62.20;;;;;;1917575;75;21096;-46
2021/09/24 08:39:47;;;;;;;8.58;4.58;;;17.30;63.20;;;;;;1917591;75;21019;-47
2021/09/24 08:42:16;;;;;;;8.30;4.00;;;17.30;63.70;;;;;;1917604;75;21082;-47
2021/09/24 08:44:49;;;;;;;11.60;4.72;;;17.40;63.20;;;;;;1917696;75;21055;-51
2021/09/24 08:47:18;;;;;;;5.33;3.92;;;17.50;63.00;;;;;;1916693;74;21019;-48
2021/09/24 08:49:48;;;;;;;4.37;3.80;;;17.60;62.20;;;;;;1917732;75;21077;-47
2021/09/24 08:52:17;;;;;;;7.00;3.52;;;17.60;61.70;;;;;;1917560;75;21019;-50
2021/09/24 08:54:48;;;;;;;7.50;3.45;;;17.60;61.20;;;;;;1917734;75;21014;-48
2021/09/24 08:57:18;;;;;;;4.40;4.00;;;17.60;61.50;;;;;;1917765;75;20995;-48
2021/09/24 08:59:47;;;;;;;9.08;4.42;;;17.50;61.40;;;;;;1917436;73;21093;-49
2021/09/24 09:02:17;;;;;;;4.75;3.67;;;17.40;61.70;;;;;;1917660;75;21021;-46
2021/09/24 09:04:47;;;;;;;6.60;4.45;;;17.40;61.80;;;;;;1917677;74;21120;-47
2021/09/24 09:07:18;;;;;;;4.80;3.77;;;17.30;62.20;;;;;;1917489;75;21098;-50
2021/09/24 09:09:50;;;;;;;6.25;4.17;;;17.30;62.10;;;;;;1917967;75;21474;-51
2021/09/24 09:12:23;;;;;;;4.53;3.80;;;17.20;61.50;;;;;;1917847;75;21019;-48
2021/09/24 09:15:01;;;;;;;7.67;4.40;;;17.10;60.80;;;;;;1917547;74;21333;-45
2021/09/24 09:17:36;;;;;;;8.55;4.28;;;17.00;61.40;;;;;;1916661;74;21062;-46
2021/09/24 09:20:16;;;;;;;7.83;4.95;;;17.00;62.30;;;;;;1917637;75;20995;-47
2021/09/24 09:22:48;;;;;;;6.58;3.70;;;17.00;62.60;;;;;;1917566;75;21038;-46
2021/09/24 09:25:28;;;;;;;9.83;4.05;;;17.00;63.20;;;;;;1917671;75;20995;-49
2021/09/24 09:27:59;;;;;;;5.35;4.10;;;17.00;62.80;;;;;;1917398;75;21015;-48
2021/09/24 09:30:30;;;;;;;5.12;3.87;;;17.10;63.00;;;;;;1917580;74;21059;-45
2021/09/24 09:33:08;;;;;;;4.42;3.45;;;17.20;63.20;;;;;;1917660;74;20991;-48
2021/09/24 09:35:40;;;;;;;7.47;5.90;;;17.30;63.10;;;;;;1917465;75;21090;-46
2021/09/24 09:38:21;;;;;;;8.28;3.95;;;17.40;63.30;;;;;;1917340;73;21089;-46
2021/09/24 09:40:53;;;;;;;9.40;4.15;;;17.50;62.50;;;;;;1917117;75;21000;-47
2021/09/24 09:43:26;;;;;;;7.33;3.58;;;17.50;62.70;;;;;;1916993;75;21541;-48
2021/09/24 09:45:56;;;;;;;9.75;3.98;;;17.50;62.30;;;;;;1917207;75;21507;-46
2021/09/24 09:48:26;;;;;;;7.58;3.40;;;17.50;62.30;;;;;;1917133;75;21094;-47
2021/09/24 09:50:55;;;;;;;6.78;5.55;;;17.60;62.40;;;;;;1916953;75;21023;-45
2021/09/24 09:53:25;;;;;;;6.42;5.20;;;17.50;62.40;;;;;;1917114;75;21022;-47
2021/09/24 09:55:58;;;;;;;14.18;10.45;;;17.50;62.30;;;;;;1916969;74;20991;-50
2021/09/24 09:58:30;;;;;;;17.17;9.10;;;17.50;62.30;;;;;;1916973;73;21039;-49
2021/09/24 10:01:05;;;;;;;13.95;10.05;;;17.40;62.30;;;;;;1917153;74;21015;-49
2021/09/24 10:03:37;;;;;;;10.48;5.60;;;17.40;62.60;;;;;;1917152;75;21546;-48
2021/09/24 10:06:21;;;;;;;8.63;5.92;;;17.30;62.70;;;;;;1916918;75;21469;-49
2021/09/24 10:08:52;;;;;;;8.53;5.70;;;17.30;62.80;;;;;;1916266;75;21039;-51
2021/09/24 10:11:36;;;;;;;10.28;6.97;;;17.40;62.20;;;;;;1917078;73;21085;-48
2021/09/24 10:14:09;;;;;;;14.18;6.75;;;17.30;62.30;;;;;;1917150;74;21522;-46
2021/09/24 10:16:47;;;;;;;9.05;6.00;;;17.30;62.40;;;;;;1917006;75;21461;-48
2021/09/24 10:19:17;;;;;;;7.87;6.10;;;17.20;62.50;;;;;;1916808;74;20991;-49
2021/09/24 10:21:47;;;;;;;12.73;4.95;;;17.20;62.80;;;;;;1917078;73;21077;-51
2021/09/24 10:24:16;;;;;;;6.37;4.60;;;17.20;62.70;;;;;;1917054;75;21144;-50
2021/09/24 10:26:48;;;;;;;7.03;5.03;;;17.10;62.70;;;;;;1913120;75;21184;-51
2021/09/24 10:29:22;;;;;;;7.67;4.83;;;17.10;63.20;;;;;;1904580;75;21018;-48
2021/09/24 10:31:52;;;;;;;9.23;5.12;;;17.00;63.20;;;;;;1904646;75;21039;-49
2021/09/24 10:34:24;;;;;;;10.50;5.37;;;17.00;63.60;;;;;;1904698;75;21019;-48
2021/09/24 10:36:55;;;;;;;7.17;4.85;;;17.00;63.80;;;;;;1904257;74;21556;-47
2021/09/24 10:39:33;;;;;;;6.58;4.55;;;17.00;64.10;;;;;;1904516;75;21137;-47
2021/09/24 10:42:25;;;;;;;9.55;4.90;;;17.00;64.00;;;;;;1904560;75;21093;-48
2021/09/24 10:45:15;;;;;;;12.93;5.25;;;17.10;64.20;;;;;;1904730;75;21410;-46
2021/09/24 10:48:05;;;;;;;6.65;4.65;;;17.10;64.20;;;;;;1904493;75;20995;-46
2021/09/24 10:50:40;;;;;;;8.30;5.00;;;17.20;64.20;;;;;;1858827;75;21058;-50
2021/09/24 10:53:18;;;;;;;;;;;17.20;64.20;;;;;;1882702;75;21011;-45
2021/09/24 10:55:57;;;;;;;10.25;5.12;;;17.30;64.40;;;;;;1904106;75;20347;-48
2021/09/24 10:58:32;;;;;;;7.53;4.92;;;17.40;64.60;;;;;;1904653;75;21067;-47
2021/09/24 11:01:11;;;;;;;5.62;4.45;;;17.40;64.60;;;;;;1904579;74;21153;-47
2021/09/24 11:03:58;;;;;;;7.70;5.25;;;17.50;64.40;;;;;;1904260;74;21032;-46
2021/09/24 11:06:38;;;;;;;9.28;4.50;;;17.50;64.30;;;;;;1904689;74;21024;-50
2021/09/24 11:09:13;;;;;;;11.10;4.40;;;17.60;63.90;;;;;;1904488;74;21462;-47
2021/09/24 11:11:50;;;;;;;13.50;5.15;;;17.50;63.80;;;;;;1904584;75;21078;-45
2021/09/24 11:14:42;;;;;;;8.23;4.53;;;17.50;64.30;;;;;;1904669;75;21490;-46
2021/09/24 11:17:11;;;;;;;5.60;3.67;;;17.60;63.90;;;;;;1904430;74;21489;-50
2021/09/24 11:19:50;;;;;;;9.28;5.03;;;17.50;63.60;;;;;;1904366;74;21047;-45
2021/09/24 11:22:40;;;;;;;8.38;4.12;;;17.50;63.80;;;;;;1904698;75;21019;-48
2021/09/24 11:25:13;;;;;;;8.43;4.78;;;17.60;64.00;;;;;;1904249;74;21085;-47
2021/09/24 11:27:46;;;;;;;9.55;3.50;;;17.60;63.60;;;;;;1914545;74;21115;-48
2021/09/24 11:30:21;;;;;;;5.28;3.98;;;17.60;63.00;;;;;;1924857;74;21092;-47
2021/09/24 11:32:55;;;;;;;6.53;4.78;;;17.60;63.50;;;;;;1923792;74;21003;-48
2021/09/24 11:35:33;;;;;;;6.67;3.20;;;17.70;63.40;;;;;;1924922;74;21116;-46
2021/09/24 11:38:07;;;;;;;6.80;2.87;;;17.70;62.50;;;;;;1924015;74;21047;-47
2021/09/24 11:40:38;;;;;;;7.20;3.02;;;17.70;62.40;;;;;;1924089;74;21093;-46
2021/09/24 11:43:07;;;;;;;14.00;3.65;;;17.70;62.50;;;;;;1924597;74;21023;-47
2021/09/24 11:45:37;;;;;;;10.25;3.55;;;17.70;62.50;;;;;;1924686;74;21527;-47
2021/09/24 11:48:10;;;;;;;9.35;4.25;;;17.70;62.40;;;;;;1924691;74;21094;-50
2021/09/24 11:50:40;;;;;;;7.70;2.87;;;17.70;62.70;;;;;;1924647;74;21014;-50
2021/09/24 11:53:12;;;;;;;10.80;3.12;;;17.70;62.50;;;;;;1924600;74;21437;-47
2021/09/24 11:55:44;;;;;;;3.72;2.60;;;17.70;62.00;;;;;;1924506;74;21043;-45
2021/09/24 11:58:15;;;;;;;7.15;2.72;;;17.70;60.40;;;;;;1924543;74;21477;-48
2021/09/24 12:00:49;;;;;;;3.37;2.05;;;17.60;59.60;;;;;;1924551;74;21018;-50
2021/09/24 12:03:27;;;;;;;8.58;3.15;;;17.60;59.90;;;;;;1924075;74;21550;-50
2021/09/24 12:06:01;;;;;;;7.92;4.33;;;17.50;60.30;;;;;;1924717;74;21088;-48
2021/09/24 12:08:32;;;;;;;6.78;2.47;;;17.50;60.00;;;;;;1924469;74;20999;-49
2021/09/24 12:11:10;;;;;;;4.20;2.55;;;17.50;59.90;;;;;;1923917;74;21110;-47
2021/09/24 12:13:47;;;;;;;6.62;2.60;;;17.40;59.90;;;;;;1924555;74;21092;-47
2021/09/24 12:16:22;;;;;;;3.72;2.17;;;17.40;60.60;;;;;;1924543;74;21469;-48
2021/09/24 12:18:59;;;;;;;5.28;2.15;;;17.30;60.30;;;;;;1924510;74;21070;-48
2021/09/24 12:21:51;;;;;;;4.15;2.67;;;17.30;60.50;;;;;;1924755;74;21088;-48
2021/09/24 12:24:29;;;;;;;5.47;2.47;;;17.30;60.80;;;;;;1924627;74;21007;-47
2021/09/24 12:27:08;;;;;;;5.28;3.40;;;17.30;61.20;;;;;;1924414;74;21116;-47
2021/09/24 12:29:43;;;;;;;7.10;2.80;;;17.20;61.50;;;;;;1927034;74;20991;-49
2021/09/24 12:32:19;;;;;;;3.17;2.87;;;17.20;61.60;;;;;;1926361;73;21001;-47
2021/09/24 12:34:53;;;;;;;5.20;2.65;;;17.20;61.60;;;;;;1926931;74;21018;-46
2021/09/24 12:37:35;;;;;;;;;;;17.20;61.80;;;;;;1927772;73;21022;-45
2021/09/24 12:40:07;;;;;;;3.67;2.30;;;17.20;61.70;;;;;;1926807;74;20144;-47
2021/09/24 12:42:45;;;;;;;5.20;2.72;;;17.20;61.60;;;;;;1926396;74;21027;-47
2021/09/24 12:45:22;;;;;;;8.68;3.27;;;17.30;61.70;;;;;;1926707;74;21073;-47
2021/09/24 12:47:52;;;;;;;4.72;2.75;;;17.30;61.90;;;;;;1926944;74;21046;-46
2021/09/24 12:50:22;;;;;;;4.08;2.72;;;17.30;61.70;;;;;;1926747;74;21022;-45
2021/09/24 12:52:53;;;;;;;3.60;2.70;;;17.30;61.80;;;;;;1926777;73;21128;-45
2021/09/24 12:55:23;;;;;;;3.77;2.33;;;17.30;61.50;;;;;;1926718;74;21077;-45
2021/09/24 12:57:53;;;;;;;8.98;3.10;;;17.20;61.60;;;;;;1926729;74;20995;-45
2021/09/24 13:00:23;;;;;;;7.60;3.02;;;17.20;61.90;;;;;;1926975;74;21018;-46
2021/09/24 13:02:52;;;;;;;5.55;3.40;;;17.10;61.90;;;;;;1926697;74;21054;-46
2021/09/24 13:05:22;;;;;;;5.28;3.12;;;17.10;62.10;;;;;;1926752;74;21088;-46
2021/09/24 13:07:53;;;;;;;5.92;3.42;;;17.00;61.80;;;;;;1926879;74;21038;-46